Time;durP1;ratioP1;P1;durP2;ratioP2;P2;SDS_P1;SDS_P2;PMS_P1;PMS_P2;Temp;Humidity;BMP_temperature;BMP_pressure;BME280_temperature;BME280_humidity;BME280_pressure;Samples;Min_cycle;Max_cycle;Signal;HPM_P1;HPM_P2
2021/09/17 00:00:46;;;;;;;;;;;;;;;18.21;100.00;99662.02;1690597;83;21169;-86
2021/09/17 00:03:11;;;;;;;;;;;;;;;18.13;100.00;99655.58;1695402;83;20751;-81
2021/09/17 00:05:37;;;;;;;;;;;;;;;18.12;100.00;99664.66;1698049;82;20190;-81
2021/09/17 00:08:09;;;;;;;;;;;;;;;18.02;100.00;99660.30;1692595;84;20893;-84
2021/09/17 00:10:34;;;;;;;;;;;;;;;17.99;100.00;99666.08;1696494;84;20202;-81
2021/09/17 00:13:01;;;;;;;;;;;;;;;18.02;100.00;99653.62;1698169;84;21109;-81
2021/09/17 00:15:26;;;;;;;;;;;;;;;17.96;100.00;99654.49;1695799;84;20405;-81
2021/09/17 00:17:52;;;;;;;;;;;;;;;17.94;100.00;99650.20;1690990;84;20145;-81
2021/09/17 00:20:18;;;;;;;;;;;;;;;17.94;100.00;99655.55;1694152;82;20732;-82
2021/09/17 00:22:43;;;;;;;;;;;;;;;17.94;100.00;99652.03;1700885;84;20236;-80
2021/09/17 00:25:10;;;;;;;;;;;;;;;17.94;100.00;99650.70;1697398;83;21188;-80
2021/09/17 00:27:35;;;;;;;;;;;;;;;17.82;100.00;99646.56;1695940;83;20308;-81
2021/09/17 00:30:08;;;;;;;;;;;;;;;17.86;100.00;99648.27;1701464;82;20134;-82
2021/09/17 00:32:34;;;;;;;;;;;;;;;17.91;100.00;99645.30;1712107;83;20208;-80
2021/09/17 00:34:59;;;;;;;;;;;;;;;17.89;100.00;99643.34;1709135;82;20493;-81
2021/09/17 00:37:25;;;;;;;;;;;;;;;17.92;100.00;99642.09;1711175;82;21018;-81
2021/09/17 00:39:51;;;;;;;;;;;;;;;17.86;100.00;99637.59;1710631;82;20414;-82
2021/09/17 00:42:16;;;;;;;;;;;;;;;17.83;100.00;99641.50;1705236;82;20153;-83
2021/09/17 00:44:42;;;;;;;;;;;;;;;17.72;100.00;99644.88;1707029;83;20813;-87
2021/09/17 00:47:07;;;;;;;;;;;;;;;17.65;100.00;99642.75;1709073;82;20172;-81
2021/09/17 00:49:33;;;;;;;;;;;;;;;17.59;100.00;99642.59;1707174;83;21346;-81
2021/09/17 00:51:58;;;;;;;;;;;;;;;17.59;100.00;99641.25;1709468;81;20225;-82
2021/09/17 00:54:25;;;;;;;;;;;;;;;17.54;100.00;99635.74;1719213;82;20155;-82
2021/09/17 00:56:50;;;;;;;;;;;;;;;17.65;100.00;99636.08;1711569;82;20177;-82
2021/09/17 00:59:17;;;;;;;;;;;;;;;17.64;100.00;99629.12;1705465;83;20189;-81
2021/09/17 01:01:43;;;;;;;;;;;;;;;17.61;100.00;99633.55;1710152;82;21047;-81
2021/09/17 01:04:09;;;;;;;;;;;;;;;17.54;100.00;99625.06;1704944;82;20234;-83
2021/09/17 01:06:35;;;;;;;;;;;;;;;17.45;100.00;99631.69;1705660;82;20144;-81
2021/09/17 01:09:00;;;;;;;;;;;;;;;17.48;100.00;99631.27;1711933;82;20671;-81
2021/09/17 01:11:26;;;;;;;;;;;;;;;17.44;100.00;99621.23;1717981;82;20233;-83
2021/09/17 01:13:52;;;;;;;;;;;;;;;17.46;100.00;99619.95;1705409;82;21888;-85
2021/09/17 01:16:17;;;;;;;;;;;;;;;17.47;100.00;99618.94;1707307;83;20170;-81
2021/09/17 01:18:43;;;;;;;;;;;;;;;17.47;100.00;99617.60;1704667;83;20222;-82
2021/09/17 01:21:08;;;;;;;;;;;;;;;17.47;100.00;99614.94;1710155;82;20169;-84
2021/09/17 01:23:34;;;;;;;;;;;;;;;17.48;100.00;99614.41;1700926;83;20185;-88
2021/09/17 01:26:00;;;;;;;;;;;;;;;17.50;100.00;99613.17;1712717;82;21133;-81
2021/09/17 01:28:27;;;;;;;;;;;;;;;17.51;100.00;99614.81;1708192;83;20145;-81
2021/09/17 01:34:23;;;;;;;;;;;;;;;17.34;100.00;99616.33;1699453;84;20566;-80
2021/09/17 01:40:20;;;;;;;;;;;;;;;17.40;100.00;99610.14;1720889;82;20202;-80
2021/09/17 01:43:00;;;;;;;;;;;;;;;17.34;100.00;99609.66;1710000;83;20138;-84
2021/09/17 01:45:25;;;;;;;;;;;;;;;17.31;100.00;99611.42;1700654;83;20185;-80
2021/09/17 01:47:51;;;;;;;;;;;;;;;17.26;100.00;99615.25;1705470;83;20162;-80
2021/09/17 01:50:16;;;;;;;;;;;;;;;17.26;100.00;99612.58;1699580;84;20158;-80
2021/09/17 01:53:03;;;;;;;;;;;;;;;17.26;100.00;99612.58;1704036;83;21088;-80
2021/09/17 01:59:03;;;;;;;;;;;;;;;17.19;100.00;99603.28;1722622;83;20144;-81
2021/09/17 02:01:32;;;;;;;;;;;;;;;17.11;100.00;99611.02;1717311;83;20128;-80
2021/09/17 02:03:57;;;;;;;;;;;;;;;17.15;100.00;99608.24;1701202;83;20194;-80
2021/09/17 02:07:08;;;;;;;;;;;;;;;17.13;100.00;99606.80;1723404;83;21301;-79
2021/09/17 02:12:56;;;;;;;;;;;;;;;16.98;100.00;99611.06;1710474;83;20233;-80
2021/09/17 02:19:08;;;;;;;;;;;;;;;16.95;100.00;99612.82;1708491;83;20181;-80
2021/09/17 02:21:34;;;;;;;;;;;;;;;16.93;100.00;99598.89;1709362;83;22040;-80
2021/09/17 02:24:00;;;;;;;;;;;;;;;16.85;100.00;99596.72;1710621;81;20206;-80
2021/09/17 02:26:26;;;;;;;;;;;;;;;16.82;100.00;99594.47;1710940;83;20305;-80
2021/09/17 02:29:03;;;;;;;;;;;;;;;16.79;100.00;99592.23;1713661;83;20479;-83
2021/09/17 02:31:29;;;;;;;;;;;;;;;16.78;100.00;99597.27;1701284;82;20188;-80
2021/09/17 02:33:55;;;;;;;;;;;;;;;16.79;100.00;99590.89;1693185;83;21335;-80
2021/09/17 02:36:20;;;;;;;;;;;;;;;16.77;100.00;99584.16;1694732;83;20155;-80
2021/09/17 02:38:46;;;;;;;;;;;;;;;16.71;100.00;99575.14;1694655;83;20182;-80
2021/09/17 02:41:12;;;;;;;;;;;;;;;16.69;100.00;99577.20;1692823;83;20183;-81
2021/09/17 02:43:38;;;;;;;;;;;;;;;16.64;100.00;99576.50;1698297;83;20169;-80
2021/09/17 02:46:03;;;;;;;;;;;;;;;16.55;100.00;99583.09;1695849;84;21083;-81
2021/09/17 02:48:29;;;;;;;;;;;;;;;16.47;100.00;99582.80;1695386;84;20145;-80
2021/09/17 02:50:55;;;;;;;;;;;;;;;16.48;100.00;99576.45;1691874;83;20761;-80
2021/09/17 02:53:20;;;;;;;;;;;;;;;16.51;100.00;99576.03;1692751;82;20252;-80
2021/09/17 02:55:48;;;;;;;;;;;;;;;16.51;100.00;99573.86;1693424;84;20350;-87
2021/09/17 02:58:13;;;;;;;;;;;;;;;16.53;100.00;99577.66;1695428;82;20190;-80
2021/09/17 03:00:41;;;;;;;;;;;;;;;16.58;100.00;99572.50;1693227;83;20207;-80
2021/09/17 03:03:07;;;;;;;;;;;;;;;16.64;100.00;99571.66;1692906;84;20152;-82
2021/09/17 03:05:32;;;;;;;;;;;;;;;16.68;100.00;99567.03;1693594;83;20199;-83
2021/09/17 03:07:58;;;;;;;;;;;;;;;16.70;100.00;99568.16;1695054;83;20128;-81
2021/09/17 03:10:24;;;;;;;;;;;;;;;16.72;100.00;99561.28;1692315;83;21065;-81
2021/09/17 03:12:50;;;;;;;;;;;;;;;16.70;100.00;99562.83;1694020;83;20279;-81
2021/09/17 03:15:16;;;;;;;;;;;;;;;16.66;100.00;99572.29;1693537;82;20190;-88
2021/09/17 03:17:42;;;;;;;;;;;;;;;16.67;100.00;99567.24;1696089;83;20756;-86
2021/09/17 03:20:08;;;;;;;;;;;;;;;16.73;100.00;99563.73;1695248;83;20120;-81
2021/09/17 03:22:34;;;;;;;;;;;;;;;16.62;100.00;99556.41;1693244;83;21139;-81
2021/09/17 03:24:59;;;;;;;;;;;;;;;16.58;100.00;99553.84;1696545;83;20279;-86
2021/09/17 03:27:25;;;;;;;;;;;;;;;16.40;100.00;99560.66;1692603;84;20154;-80
2021/09/17 03:29:51;;;;;;;;;;;;;;;16.39;100.00;99559.05;1692819;83;20759;-81
2021/09/17 03:32:17;;;;;;;;;;;;;;;16.29;100.00;99559.45;1707293;83;20219;-79
2021/09/17 03:34:44;;;;;;;;;;;;;;;16.26;100.00;99561.73;1706508;83;21095;-80
2021/09/17 03:37:10;;;;;;;;;;;;;;;16.26;100.00;99567.06;1703287;83;20548;-80
2021/09/17 03:39:35;;;;;;;;;;;;;;;16.19;100.00;99564.41;1706890;82;20192;-86
2021/09/17 03:42:01;;;;;;;;;;;;;;;16.15;100.00;99562.66;1706775;83;20175;-82
2021/09/17 03:44:27;;;;;;;;;;;;;;;16.15;100.00;99553.33;1706096;82;20281;-80
2021/09/17 03:46:53;;;;;;;;;;;;;;;16.10;100.00;99561.14;1711234;83;21327;-85
2021/09/17 03:49:20;;;;;;;;;;;;;;;16.10;100.00;99557.14;1708298;83;20261;-80
2021/09/17 03:51:46;;;;;;;;;;;;;;;16.17;100.00;99550.46;1712808;82;20340;-80
2021/09/17 03:54:11;;;;;;;;;;;;;;;16.11;100.00;99557.45;1703754;83;20264;-89
2021/09/17 03:56:37;;;;;;;;;;;;;;;16.11;100.00;99557.95;1711570;82;20124;-84
2021/09/17 03:59:03;;;;;;;;;;;;;;;16.10;100.00;99558.47;1705897;83;21257;-82
2021/09/17 04:01:28;;;;;;;;;;;;;;;16.05;100.00;99554.78;1709807;82;20292;-80
2021/09/17 04:03:54;;;;;;;;;;;;;;;16.02;100.00;99550.70;1702590;83;20194;-80
2021/09/17 04:06:20;;;;;;;;;;;;;;;16.03;100.00;99558.17;1705980;83;20167;-83
2021/09/17 04:08:45;;;;;;;;;;;;;;;15.93;100.00;99551.94;1709626;82;21801;-86
2021/09/17 04:11:11;;;;;;;;;;;;;;;15.92;100.00;99558.28;1706526;83;21387;-88
2021/09/17 04:13:36;;;;;;;;;;;;;;;15.93;100.00;99551.42;1706530;82;20142;-86
2021/09/17 04:16:02;;;;;;;;;;;;;;;15.90;100.00;99547.02;1710445;82;20491;-88
2021/09/17 04:18:28;;;;;;;;;;;;;;;15.92;100.00;99550.29;1709512;82;20240;-86
2021/09/17 04:20:53;;;;;;;;;;;;;;;15.90;100.00;99547.02;1706655;83;20443;-81
2021/09/17 04:23:19;;;;;;;;;;;;;;;15.86;100.00;99545.79;1683475;83;21357;-82
2021/09/17 04:25:45;;;;;;;;;;;;;;;15.85;100.00;99543.65;1707599;82;20473;-81
2021/09/17 04:28:10;;;;;;;;;;;;;;;15.83;100.00;99551.52;1712227;83;20135;-81
2021/09/17 04:30:36;;;;;;;;;;;;;;;15.86;100.00;99548.45;1707292;82;20533;-86
2021/09/17 04:33:02;;;;;;;;;;;;;;;15.83;100.00;99549.67;1710362;83;20126;-80
2021/09/17 04:35:29;;;;;;;;;;;;;;;15.83;100.00;99552.33;1705946;81;21118;-79
2021/09/17 04:37:58;;;;;;;;;;;;;;;15.81;100.00;99556.25;1707261;82;20148;-80
2021/09/17 04:40:24;;;;;;;;;;;;;;;15.79;100.00;99559.11;1705798;83;20462;-79
2021/09/17 04:42:51;;;;;;;;;;;;;;;15.83;100.00;99554.19;1712681;82;20432;-81
2021/09/17 04:45:17;;;;;;;;;;;;;;;15.95;100.00;99553.88;1693193;83;20199;-80
2021/09/17 04:47:42;;;;;;;;;;;;;;;15.92;100.00;99558.28;1710197;83;21101;-80
2021/09/17 04:50:09;;;;;;;;;;;;;;;15.92;100.00;99563.08;1710662;82;20140;-82
2021/09/17 04:52:35;;;;;;;;;;;;;;;15.85;100.00;99554.79;1707839;83;20193;-80
2021/09/17 04:55:00;;;;;;;;;;;;;;;15.84;100.00;99563.82;1707985;82;20752;-89
2021/09/17 04:57:26;;;;;;;;;;;;;;;15.78;100.00;99562.78;1709640;83;20412;-81
2021/09/17 04:59:53;;;;;;;;;;;;;;;15.74;100.00;99567.68;1704711;82;21142;-83
2021/09/17 05:02:18;;;;;;;;;;;;;;;15.76;100.00;99565.63;1708532;82;20346;-87
2021/09/17 05:04:44;;;;;;;;;;;;;;;15.73;100.00;99566.03;1709577;83;20165;-84
2021/09/17 05:07:11;;;;;;;;;;;;;;;15.75;100.00;99566.67;1709367;82;20192;-80
2021/09/17 05:09:37;;;;;;;;;;;;;;;15.79;100.00;99563.91;1704582;83;20202;-80
2021/09/17 05:12:06;;;;;;;;;;;;;;;15.81;100.00;99561.56;1699384;83;21758;-79
2021/09/17 05:15:14;;;;;;;;;;;;;;;15.82;100.00;99572.02;1711544;83;20153;-80
2021/09/17 05:17:40;;;;;;;;;;;;;;;15.70;100.00;99569.09;1702383;82;20206;-80
2021/09/17 05:20:14;;;;;;;;;;;;;;;15.65;100.00;99578.22;1702163;82;20220;-80
2021/09/17 05:22:41;;;;;;;;;;;;;;;15.56;100.00;99581.58;1703576;83;20176;-81
2021/09/17 05:25:09;;;;;;;;;;;;;;;15.64;100.00;99573.91;1704943;83;21142;-84
2021/09/17 05:27:34;;;;;;;;;;;;;;;15.54;100.00;99576.98;1703197;83;20255;-83
2021/09/17 05:30:00;;;;;;;;;;;;;;;15.59;100.00;99572.38;1708753;83;21202;-81
2021/09/17 05:32:26;;;;;;;;;;;;;;;15.55;100.00;99571.97;1696410;83;20227;-89
2021/09/17 05:34:51;;;;;;;;;;;;;;;15.57;100.00;99581.08;1694245;83;20227;-88
2021/09/17 05:37:18;;;;;;;;;;;;;;;15.49;100.00;99577.27;1697463;82;21211;-84
2021/09/17 05:39:44;;;;;;;;;;;;;;;15.55;100.00;99575.97;1696493;82;20142;-82
2021/09/17 05:42:09;;;;;;;;;;;;;;;15.46;100.00;99585.65;1693490;83;20209;-81
2021/09/17 05:44:35;;;;;;;;;;;;;;;15.53;100.00;99583.31;1696986;82;20751;-86
2021/09/17 05:47:00;;;;;;;;;;;;;;;15.47;100.00;99576.66;1694517;83;20117;-81
2021/09/17 05:49:26;;;;;;;;;;;;;;;15.49;100.00;99583.91;1694420;82;21000;-86
2021/09/17 05:51:52;;;;;;;;;;;;;;;15.41;100.00;99579.11;1695105;82;20570;-87
2021/09/17 05:54:17;;;;;;;;;;;;;;;15.36;100.00;99585.53;1692374;83;20134;-83
2021/09/17 05:56:43;;;;;;;;;;;;;;;15.41;100.00;99577.78;1694538;82;20828;-81
2021/09/17 05:59:08;;;;;;;;;;;;;;;15.41;100.00;99579.60;1699294;82;20133;-82
2021/09/17 06:01:34;;;;;;;;;;;;;;;15.48;100.00;99575.64;1696032;83;21945;-89
2021/09/17 06:03:59;;;;;;;;;;;;;;;15.49;100.00;99575.93;1693672;83;20168;-84
2021/09/17 06:06:25;;;;;;;;;;;;;;;15.40;100.00;99577.98;1692120;83;20159;-84
2021/09/17 06:08:51;;;;;;;;;;;;;;;15.40;100.00;99580.13;1695876;83;20809;-82
2021/09/17 06:11:17;;;;;;;;;;;;;;;15.35;100.00;99585.23;1696669;83;20159;-84
2021/09/17 06:13:43;;;;;;;;;;;;;;;15.34;100.00;99589.43;1694686;83;20972;-85
2021/09/17 06:16:10;;;;;;;;;;;;;;;15.36;100.00;99584.20;1692318;83;20291;-82
2021/09/17 06:18:36;;;;;;;;;;;;;;;15.33;100.00;99589.92;1697053;82;20602;-84
2021/09/17 06:21:02;;;;;;;;;;;;;;;15.35;100.00;99589.23;1696356;83;20117;-84
2021/09/17 06:23:27;;;;;;;;;;;;;;;15.34;100.00;99583.59;1695467;83;20423;-83
2021/09/17 06:25:57;;;;;;;;;;;;;;;15.34;100.00;99588.09;1691651;83;21157;-90
2021/09/17 06:28:25;;;;;;;;;;;;;;;15.30;100.00;99580.20;1691675;83;20777;-86
2021/09/17 06:30:53;;;;;;;;;;;;;;;15.35;100.00;99582.58;1692239;83;20131;-87
2021/09/17 06:33:20;;;;;;;;;;;;;;;15.35;100.00;99582.58;1706688;82;20262;-90
2021/09/17 06:35:48;;;;;;;;;;;;;;;15.42;100.00;99579.41;1705782;82;20175;-89
2021/09/17 06:38:13;;;;;;;;;;;;;;;15.44;100.00;99580.53;1709565;82;21156;-84
2021/09/17 06:40:39;;;;;;;;;;;;;;;15.46;100.00;99582.98;1707871;82;20137;-84
2021/09/17 06:43:04;;;;;;;;;;;;;;;15.54;100.00;99580.16;1711354;82;20487;-85
2021/09/17 06:45:30;;;;;;;;;;;;;;;15.42;100.00;99583.39;1705814;82;20205;-85
2021/09/17 06:47:58;;;;;;;;;;;;;;;15.56;100.00;99571.45;1702319;83;20142;-86
2021/09/17 06:50:24;;;;;;;;;;;;;;;15.65;100.00;99576.08;1704917;82;21121;-92
2021/09/17 06:52:50;;;;;;;;;;;;;;;15.56;100.00;99579.44;1704702;83;20313;-84
2021/09/17 06:55:18;;;;;;;;;;;;;;;15.56;100.00;99575.45;1703131;82;20157;-89
2021/09/17 06:57:49;;;;;;;;;;;;;;;15.53;100.00;99567.86;1702727;82;20167;-86
2021/09/17 07:00:16;;;;;;;;;;;;;;;15.60;100.00;99567.37;1705155;82;20151;-88
2021/09/17 07:02:42;;;;;;;;;;;;;;;15.63;100.00;99565.64;1700049;83;21122;-91
2021/09/17 07:05:07;;;;;;;;;;;;;;;15.56;100.00;99575.45;1700810;82;20214;-86
2021/09/17 07:07:33;;;;;;;;;;;;;;;15.59;100.00;99569.72;1703406;82;20261;-86
2021/09/17 07:09:59;;;;;;;;;;;;;;;15.53;100.00;99569.20;1701967;82;21214;-87
2021/09/17 07:12:24;;;;;;;;;;;;;;;15.57;100.00;99565.11;1711531;82;20162;-84
2021/09/17 07:14:50;;;;;;;;;;;;;;;15.62;100.00;99571.97;1706608;82;20647;-87
2021/09/17 07:17:15;;;;;;;;;;;;;;;15.61;100.00;99567.17;1705940;82;20488;-88
2021/09/17 07:19:41;;;;;;;;;;;;;;;15.65;100.00;99567.57;1709866;82;20445;-85
2021/09/17 07:22:07;;;;;;;;;;;;;;;15.69;100.00;99570.14;1680492;82;20876;-86
2021/09/17 07:24:33;;;;;;;;;;;;;;;15.74;100.00;99574.86;1701907;82;20197;-88
2021/09/17 07:26:58;;;;;;;;;;;;;;;15.74;100.00;99569.01;1705508;82;21084;-89
2021/09/17 07:29:24;;;;;;;;;;;;;;;15.68;100.00;99568.49;1702485;82;20140;-86
2021/09/17 07:31:50;;;;;;;;;;;;;;;15.74;100.00;99570.34;1702769;82;20514;-85
2021/09/17 07:34:15;;;;;;;;;;;;;;;15.72;100.00;99569.73;1702252;82;20144;-90
2021/09/17 07:36:41;;;;;;;;;;;;;;;15.62;100.00;99574.11;1702230;83;20478;-86
2021/09/17 07:39:09;;;;;;;;;;;;;;;15.73;100.00;99570.02;1705233;81;21084;-85
2021/09/17 07:41:35;;;;;;;;;;;;;;;15.70;100.00;99569.09;1701242;82;20245;-90
2021/09/17 07:44:02;;;;;;;;;;;;;;;15.76;100.00;99570.95;1707291;82;20239;-91
2021/09/17 07:46:28;;;;;;;;;;;;;;;15.64;100.00;99569.91;1704101;81;20244;-91
2021/09/17 07:48:53;;;;;;;;;;;;;;;15.70;100.00;99565.63;1701636;83;20348;-87
2021/09/17 07:51:19;;;;;;;;;;;;;;;15.74;100.00;99570.34;1680727;83;22385;-87
2021/09/17 07:53:44;;;;;;;;;;;;;;;15.68;100.00;99565.83;1706819;82;20148;-86
2021/09/17 07:56:10;;;;;;;;;;;;;;;15.69;100.00;99570.14;1703732;82;20445;-86
2021/09/17 07:58:36;;;;;;;;;;;;;;;15.79;100.00;99567.91;1703379;82;20174;-86
2021/09/17 08:01:02;;;;;;;;;;;;;;;15.71;100.00;99569.42;1707839;83;20226;-89
2021/09/17 08:03:32;;;;;;;;;;;;;;;15.71;100.00;99557.44;1703576;82;21090;-86
2021/09/17 08:06:00;;;;;;;;;;;;;;;15.75;100.00;99561.34;1705493;82;20142;-90
2021/09/17 08:08:26;;;;;;;;;;;;;;;15.79;100.00;99567.91;1707026;83;20238;-86
2021/09/17 08:10:52;;;;;;;;;;;;;;;15.87;100.00;99558.09;1704398;82;20209;-90
2021/09/17 08:13:18;;;;;;;;;;;;;;;15.91;100.00;99553.97;1701732;83;20177;-87
2021/09/17 08:15:43;;;;;;;;;;;;;;;15.97;100.00;99555.81;1710877;82;21324;-87
2021/09/17 08:18:09;;;;;;;;;;;;;;;15.85;100.00;99557.45;1704584;82;20146;-85
2021/09/17 08:20:37;;;;;;;;;;;;;;;15.85;100.00;99557.45;1713686;82;20179;-85
2021/09/17 08:23:02;;;;;;;;;;;;;;;15.91;100.00;99561.95;1704060;83;20220;-84
2021/09/17 08:25:28;;;;;;;;;;;;;;;15.95;100.00;99561.87;1710519;82;20208;-84
2021/09/17 08:27:54;;;;;;;;;;;;;;;15.99;100.00;99556.44;1706503;82;21350;-84
2021/09/17 08:30:20;;;;;;;;;;;;;;;16.07;100.00;99558.89;1707029;82;20162;-87
2021/09/17 08:32:45;;;;;;;;;;;;;;;16.12;100.00;99552.94;1704932;82;20225;-91
2021/09/17 08:35:11;;;;;;;;;;;;;;;16.20;100.00;99555.38;1705932;83;20117;-84
2021/09/17 08:37:37;;;;;;;;;;;;;;;16.32;100.00;99560.90;1719660;82;20227;-84
2021/09/17 08:40:06;;;;;;;;;;;;;;;16.41;100.00;99555.66;1719312;82;21470;-84
2021/09/17 08:42:31;;;;;;;;;;;;;;;16.38;100.00;99555.26;1719655;82;20240;-83
2021/09/17 08:44:57;;;;;;;;;;;;;;;16.30;100.00;99558.44;1718555;82;20185;-85
2021/09/17 08:47:23;;;;;;;;;;;;;;;16.30;100.00;99550.97;1723019;82;20139;-87
2021/09/17 08:49:48;;;;;;;;;;;;;;;16.35;100.00;99555.16;1722859;82;20358;-88
2021/09/17 08:52:14;;;;;;;;;;;;;;;16.29;100.00;99550.66;1722304;82;21097;-88
2021/09/17 08:54:40;;;;;;;;;;;;;;;16.31;100.00;99549.92;1720278;82;20513;-87
2021/09/17 08:57:06;;;;;;;;;;;;;;;16.34;100.00;99552.17;1719079;82;20765;-86
2021/09/17 08:59:32;;;;;;;;;;;;;;;16.41;100.00;99556.98;1721449;82;20206;-89
2021/09/17 09:01:57;;;;;;;;;;;;;;;16.56;100.00;99555.91;1718909;82;20232;-88
2021/09/17 09:04:41;;;;;;;;;;;;;;;16.54;100.00;99560.64;1678363;82;21180;-84
2021/09/17 09:07:04;;;;;;;;;;;;;;;16.43;100.00;99558.11;1715914;82;20122;-89
2021/09/17 09:09:30;;;;;;;;;;;;;;;16.34;100.00;99553.50;1723873;82;20129;-85
2021/09/17 09:11:57;;;;;;;;;;;;;;;16.34;100.00;99552.17;1717873;82;20474;-87
2021/09/17 09:14:25;;;;;;;;;;;;;;;16.19;100.00;99552.92;1724733;82;20236;-92
2021/09/17 09:16:53;;;;;;;;;;;;;;;16.19;100.00;99554.25;1723586;82;20338;-89
2021/09/17 09:19:33;;;;;;;;;;;;;;;16.21;100.00;99558.87;1722130;82;20199;-88
2021/09/17 09:22:07;;;;;;;;;;;;;;;16.15;100.00;99557.85;1719268;82;20146;-89
2021/09/17 09:24:42;;;;;;;;;;;;;;;16.04;100.00;99556.63;1723234;82;20237;-86
2021/09/17 09:27:07;;;;;;;;;;;;;;;15.94;100.00;99561.55;1720468;82;20196;-89
2021/09/17 09:29:32;;;;;;;;;;;;;;;16.06;100.00;99557.23;1718164;82;21881;-89
2021/09/17 09:31:58;;;;;;;;;;;;;;;16.10;100.00;99557.14;1718208;82;20376;-86
2021/09/17 09:34:27;;;;;;;;;;;;;;;16.10;100.00;99555.00;1709283;82;20165;-84
2021/09/17 09:37:05;;;;;;;;;;;;;;;16.20;100.00;99555.90;1700469;82;21499;-86
2021/09/17 09:39:52;;;;;;;;;;;;;;;16.26;100.00;99555.06;1705524;82;20220;-86
2021/09/17 09:42:19;;;;;;;;;;;;;;;16.24;100.00;99559.27;1627688;86;21140;-86
2021/09/17 09:44:49;;;;;;;;;;;;;;;16.29;100.00;99565.31;1649136;85;20249;-87
2021/09/17 09:47:14;;;;;;;;;;;;;;;16.40;100.00;99558.00;1658864;82;20357;-86
2021/09/17 09:49:42;;;;;;;;;;;;;;;16.41;100.00;99559.65;1714634;82;20356;-91
2021/09/17 09:52:09;;;;;;;;;;;;;;;16.32;100.00;99560.90;1711738;81;20096;-88
2021/09/17 09:54:36;;;;;;;;;;;;;;;16.38;100.00;99554.73;1714898;81;20997;-89
2021/09/17 09:57:04;;;;;;;;;;;;;;;16.45;100.00;99556.88;1709572;81;20103;-91
2021/09/17 09:59:31;;;;;;;;;;;;;;;16.45;100.00;99552.88;1711963;82;20163;-93
2021/09/17 10:01:58;;;;;;;;;;;;;;;16.48;100.00;99564.45;1707549;83;20202;-90
2021/09/17 10:04:25;;;;;;;;;;;;;;;16.48;100.00;99556.47;1708505;81;20230;-86
2021/09/17 10:06:55;;;;;;;;;;;;;;;16.63;100.00;99562.05;1710883;82;21295;-87
2021/09/17 10:09:21;;;;;;;;;;;;;;;16.58;100.00;99556.02;1708058;83;20195;-87
2021/09/17 10:11:52;;;;;;;;;;;;;;;16.70;100.00;99560.16;1711933;83;20166;-89
2021/09/17 10:14:17;;;;;;;;;;;;;;;16.78;100.00;99553.77;1704118;83;20178;-84
2021/09/17 10:16:44;;;;;;;;;;;;;;;16.85;100.00;99554.05;1704241;83;20106;-85
2021/09/17 10:19:11;;;;;;;;;;;;;;;16.70;100.00;99557.49;1709292;83;21350;-85
2021/09/17 10:21:50;;;;;;;;;;;;;;;16.80;100.00;99560.54;1711061;83;20168;-88
2021/09/17 10:24:29;;;;;;;;;;;;;;;16.66;100.00;99557.11;1704001;83;20163;-88
2021/09/17 10:27:07;;;;;;;;;;;;;;;16.83;100.00;99564.12;1708997;81;20280;-88
2021/09/17 10:29:39;;;;;;;;;;;;;;;16.80;100.00;99568.55;1703133;83;20301;-89
2021/09/17 10:32:09;;;;;;;;;;;;;;;16.78;100.00;99567.95;1700543;82;21892;-90
2021/09/17 10:34:44;;;;;;;;;;;;;;;16.76;100.00;99563.31;1699490;82;20304;-87
2021/09/17 10:37:10;;;;;;;;;;;;;;;16.69;100.00;99556.69;1709151;83;20128;-88
2021/09/17 10:39:37;;;;;;;;;;;;;;;16.79;100.00;99566.09;1702959;83;20265;-88
2021/09/17 10:42:17;;;;;;;;;;;;;;;16.85;100.00;99554.05;1685212;83;37135;-89
2021/09/17 10:45:05;;;;;;;;;;;;;;;16.99;100.00;99554.84;1709074;82;21113;-87
2021/09/17 10:47:48;;;;;;;;;;;;;;;17.09;100.00;99547.73;1700271;83;20230;-90
2021/09/17 10:50:14;;;;;;;;;;;;;;;17.08;100.00;99552.75;1708653;82;20181;-87
2021/09/17 10:52:42;;;;;;;;;;;;;;;17.18;100.00;99546.45;1701393;83;20216;-84
2021/09/17 10:55:09;;;;;;;;;;;;;;;17.33;100.00;99549.33;1703958;83;20267;-89
2021/09/17 10:58:12;;;;;;;;;;;;;;;17.37;100.00;99549.18;1710190;81;22102;-84
2021/09/17 11:00:57;;;;;;;;;;;;;;;17.31;100.00;99548.70;1702767;83;20174;-83
2021/09/17 11:03:45;;;;;;;;;;;;;;;17.40;100.00;99551.41;1704577;83;20154;-84
2021/09/17 11:08:58;;;;;;;;;;;;;;;17.73;100.00;99547.71;1700375;83;20165;-83
2021/09/17 11:11:35;;;;;;;;;;;;;;;17.86;100.00;99540.91;1708455;82;22033;-88
2021/09/17 11:14:04;;;;;;;;;;;;;;;17.83;100.00;99544.01;1699656;83;20168;-88
2021/09/17 11:16:31;;;;;;;;;;;;;;;17.82;99.78;99538.89;1705673;83;20152;-85
2021/09/17 11:19:05;;;;;;;;;;;;;;;17.80;99.26;99544.45;1709948;83;20174;-84
2021/09/17 11:21:33;;;;;;;;;;;;;;;17.83;98.68;99540.00;1689647;82;20238;-86
2021/09/17 11:23:59;;;;;;;;;;;;;;;17.81;98.34;99542.09;1708223;82;21335;-85
2021/09/17 11:26:27;;;;;;;;;;;;;;;17.89;98.39;99544.50;1704634;83;20258;-85
2021/09/17 11:29:07;;;;;;;;;;;;;;;17.97;98.41;99543.94;1704700;82;20326;-86
2021/09/17 11:31:35;;;;;;;;;;;;;;;18.06;98.45;99535.41;1704666;82;20916;-85
2021/09/17 11:34:04;;;;;;;;;;;;;;;18.14;97.73;99530.30;1713722;81;20149;-90
2021/09/17 11:36:44;;;;;;;;;;;;;;;18.26;97.84;99524.52;1708176;83;21117;-84
2021/09/17 11:39:21;;;;;;;;;;;;;;;18.30;97.67;99527.06;1701738;81;20162;-84
2021/09/17 11:41:50;;;;;;;;;;;;;;;18.46;96.80;99525.64;1703122;83;20246;-81
2021/09/17 11:44:38;;;;;;;;;;;;;;;18.55;96.23;99534.19;1698859;82;20243;-85
2021/09/17 11:47:08;;;;;;;;;;;;;;;18.60;95.22;99522.30;1712615;82;20347;-82
2021/09/17 11:49:36;;;;;;;;;;;;;;;18.65;94.77;99523.77;1707335;83;21308;-85
2021/09/17 11:52:06;;;;;;;;;;;;;;;18.73;94.58;99527.19;1703323;83;20182;-84
2021/09/17 11:54:34;;;;;;;;;;;;;;;18.90;93.71;99524.73;1704040;82;20205;-82
2021/09/17 11:57:11;;;;;;;;;;;;;;;18.99;93.88;99521.50;1707904;82;20176;-86
2021/09/17 11:59:42;;;;;;;;;;;;;;;19.07;93.34;99516.89;1679173;82;21161;-87
2021/09/17 12:02:20;;;;;;;;;;;;;;;19.10;92.24;99518.58;1704226;82;21193;-86
2021/09/17 12:04:56;;;;;;;;;;;;;;;19.17;91.24;99507.77;1704516;82;20171;-85
2021/09/17 12:07:24;;;;;;;;;;;;;;;19.31;91.48;99510.56;1712997;82;20192;-81
2021/09/17 12:09:50;;;;;;;;;;;;;;;19.38;90.45;99511.26;1706922;83;20237;-89
2021/09/17 12:12:16;;;;;;;;;;;;;;;19.31;88.16;99516.42;1705121;82;20163;-83
2021/09/17 12:14:54;;;;;;;;;;;;;;;19.15;87.41;99515.22;1719278;82;21152;-83
2021/09/17 12:17:20;;;;;;;;;;;;;;;19.03;87.18;99509.81;1716182;82;20207;-81
2021/09/17 12:20:07;;;;;;;;;;;;;;;19.18;87.22;99508.88;1700724;83;20228;-86
2021/09/17 12:22:47;;;;;;;;;;;;;;;19.19;86.90;99509.72;1702905;83;20928;-84
2021/09/17 12:25:13;;;;;;;;;;;;;;;19.25;86.54;99507.97;1708803;82;20257;-85
2021/09/17 12:27:41;;;;;;;;;;;;;;;19.32;86.23;99506.81;1709386;81;21020;-85
2021/09/17 12:30:12;;;;;;;;;;;;;;;19.34;84.76;99506.09;1701384;83;20269;-83
2021/09/17 12:32:38;;;;;;;;;;;;;;;19.35;85.28;99501.00;1705032;83;20183;-85
2021/09/17 12:35:18;;;;;;;;;;;;;;;19.26;84.68;99502.91;1721999;81;20195;-83
2021/09/17 12:37:53;;;;;;;;;;;;;;;19.29;84.26;99501.92;1715600;83;20577;-83
2021/09/17 12:40:22;;;;;;;;;;;;;;;19.30;84.95;99496.88;1698150;84;21162;-85
2021/09/17 12:42:59;;;;;;;;;;;;;;;19.38;84.59;99497.87;1702748;84;20146;-84
2021/09/17 12:48:54;;;;;;;;;;;;;;;19.67;83.37;99492.68;1701866;84;20174;-82
2021/09/17 12:51:33;;;;;;;;;;;;;;;19.85;82.93;99489.62;1703558;83;20202;-83
2021/09/17 12:54:03;;;;;;;;;;;;;;;19.93;80.74;99495.95;1691195;83;22035;-82
2021/09/17 12:56:28;;;;;;;;;;;;;;;19.82;80.03;99488.75;1708557;82;20192;-83
2021/09/17 12:59:11;;;;;;;;;;;;;;;19.86;80.68;99484.02;1702845;84;20158;-82
2021/09/17 13:01:38;;;;;;;;;;;;;;;19.75;80.24;99495.53;1711360;83;20215;-84
2021/09/17 13:04:33;;;;;;;;;;;;;;;19.97;80.70;99487.75;1709366;82;20194;-85
2021/09/17 13:06:58;;;;;;;;;;;;;;;19.93;81.07;99482.55;1704495;83;21160;-84